HEAX/ALY METAR and TAF weather

Enter ICAO airport designator
Station Type Date Time Source
HEAX METAR 2022/01/29 13:00 UTC NOAA

HEAX 291300Z 27008KT 9999 SCT020 SCT022 18/08 Q1020 NOSIG


Station Type Date Time Source
HEAX Decoded METAR 2022/01/29 13:00 UTC NOAA

Alexandria / Nouzha, Egypt (HEAX) 31-12N 029-57E 7M
Jan 29, 2022 - 08:00 AM EST / 2022.01.29 1300 UTC
Wind: from the W (270 degrees) at 9 MPH (8 KT):0
Visibility: greater than 7 mile(s):0
Sky conditions: partly cloudy
Temperature: 64 F (18 C)
Dew Point: 46 F (8 C)
Relative Humidity: 51%
Pressure (altimeter): 30.12 in. Hg (1020 hPa)
ob: HEAX 291300Z 27008KT 9999 SCT020 SCT022 18/08 Q1020 NOSIG
cycle: 13

Station Type Date Time Source
HEAX TAF 2022/01/29 12:43 UTC NOAA

TAF HEAX 291100Z 2912/3018 27009KT 9999 SCT020 SCT022
TEMPO 2912/2918 8000 -RA BKN020
BECMG 2918/2920 18006KT

Example: see airport list